createdAt,value
2019-04-07T00:05:09.007Z,9.90
2019-04-07T00:07:41.395Z,9.80
2019-04-07T00:10:24.091Z,9.70
2019-04-07T00:13:06.105Z,9.70
2019-04-07T00:15:48.825Z,9.70
2019-04-07T00:18:30.845Z,9.60
2019-04-07T00:21:13.686Z,9.60
2019-04-07T00:23:55.575Z,9.50
2019-04-07T00:26:37.983Z,9.50
2019-04-07T00:29:19.902Z,9.50
2019-04-07T00:32:02.504Z,9.50
2019-04-07T00:34:45.152Z,9.50
2019-04-07T00:37:27.369Z,9.50
2019-04-07T00:40:09.600Z,9.50
2019-04-07T00:42:51.970Z,9.40
2019-04-07T00:45:35.321Z,9.40
2019-04-07T00:48:17.823Z,9.40
2019-04-07T00:50:59.310Z,9.40
2019-04-07T00:53:41.745Z,9.40
2019-04-07T00:56:23.670Z,9.40
2019-04-07T00:59:05.751Z,9.30
2019-04-07T01:01:47.968Z,9.30
2019-04-07T01:04:29.906Z,9.20
2019-04-07T01:07:11.651Z,9.10
2019-04-07T01:09:54.125Z,9.10
2019-04-07T01:12:36.899Z,9.10
2019-04-07T01:15:18.941Z,9.00
2019-04-07T01:18:01.127Z,9.00
2019-04-07T01:20:43.037Z,8.90
2019-04-07T01:23:25.887Z,8.90
2019-04-07T01:26:07.691Z,8.90
2019-04-07T01:28:49.734Z,8.90
2019-04-07T01:31:32.982Z,8.90
2019-04-07T01:34:16.101Z,8.90
2019-04-07T01:36:58.372Z,8.90
2019-04-07T01:39:40.159Z,8.80
2019-04-07T01:42:24.237Z,8.80
2019-04-07T01:45:25.698Z,8.80
2019-04-07T01:48:12.131Z,8.80
2019-04-07T01:50:55.530Z,8.80
2019-04-07T01:53:57.372Z,8.70
2019-04-07T01:56:41.650Z,8.60
2019-04-07T01:59:23.373Z,8.60
2019-04-07T02:05:59.220Z,8.60
2019-04-07T02:08:55.768Z,8.60
2019-04-07T02:11:56.671Z,8.50
2019-04-07T02:14:58.295Z,8.50
2019-04-07T02:17:44.784Z,8.60
2019-04-07T02:20:31.173Z,8.60
2019-04-07T02:23:15.355Z,8.50
2019-04-07T02:26:16.402Z,8.40
2019-04-07T02:29:02.959Z,8.40
2019-04-07T02:32:03.645Z,8.50
2019-04-07T02:35:05.510Z,8.50
2019-04-07T02:38:06.472Z,8.40
2019-04-07T02:40:53.434Z,8.30
2019-04-07T02:43:42.489Z,8.40
2019-04-07T02:46:27.109Z,8.40
2019-04-07T02:49:28.539Z,8.40
2019-04-07T02:52:30.814Z,8.40
2019-04-07T02:55:14.739Z,8.30
2019-04-07T02:57:58.546Z,8.30
2019-04-07T03:00:46.775Z,8.20
2019-04-07T03:04:08.320Z,8.20
2019-04-07T03:07:09.037Z,8.10
2019-04-07T03:10:17.128Z,8.00
2019-04-07T03:13:46.500Z,7.90
2019-04-07T03:19:56.150Z,7.80
2019-04-07T03:23:06.135Z,7.90
2019-04-07T03:29:29.549Z,7.90
2019-04-07T03:32:38.847Z,7.90
2019-04-07T03:36:10.840Z,7.80
2019-04-07T03:39:36.060Z,7.80
2019-04-07T03:42:44.064Z,7.80
2019-04-07T03:52:36.471Z,7.80
2019-04-07T03:55:44.636Z,7.80
2019-04-07T03:58:54.351Z,7.80
2019-04-07T04:02:02.471Z,7.80
2019-04-07T04:08:19.325Z,7.80
2019-04-07T04:11:06.301Z,7.70
2019-04-07T04:14:09.198Z,7.70
2019-04-07T04:16:52.506Z,7.80
2019-04-07T04:19:36.079Z,7.80
2019-04-07T04:22:18.609Z,7.80
2019-04-07T04:25:00.934Z,7.80
2019-04-07T04:27:43.084Z,7.80
2019-04-07T04:30:25.707Z,7.80
2019-04-07T04:33:08.791Z,7.90
2019-04-07T04:35:50.351Z,7.90
2019-04-07T04:38:32.339Z,7.90
2019-04-07T04:41:14.753Z,8.00
2019-04-07T04:43:57.942Z,8.00
2019-04-07T04:46:41.105Z,8.00
2019-04-07T04:49:21.167Z,7.80
2019-04-07T04:52:10.078Z,7.70
2019-04-07T04:55:00.640Z,7.80
2019-04-07T04:58:11.277Z,7.70
2019-04-07T05:01:20.589Z,7.70
2019-04-07T05:04:30.364Z,7.70
2019-04-07T05:07:49.953Z,7.60
2019-04-07T05:10:49.222Z,7.70
2019-04-07T05:13:38.514Z,7.70
2019-04-07T05:16:48.110Z,7.80
2019-04-07T05:19:57.988Z,7.80
2019-04-07T05:22:48.768Z,7.70
2019-04-07T05:25:58.351Z,7.80
2019-04-07T05:29:06.676Z,7.90
2019-04-07T05:32:15.724Z,7.40
2019-04-07T05:35:07.692Z,7.90
2019-04-07T05:38:02.752Z,7.90
2019-04-07T05:41:08.254Z,8.00
2019-04-07T05:43:58.911Z,8.10
2019-04-07T05:46:49.602Z,8.10
2019-04-07T05:49:59.952Z,8.10
2019-04-07T05:53:23.268Z,8.30
2019-04-07T05:56:18.552Z,8.40
2019-04-07T05:59:29.624Z,8.60
2019-04-07T06:02:20.676Z,8.10
2019-04-07T06:05:11.161Z,8.70
2019-04-07T06:08:25.829Z,8.80
2019-04-07T06:11:00.415Z,8.80
2019-04-07T06:13:43.822Z,8.80
2019-04-07T06:16:25.784Z,8.80
2019-04-07T06:19:08.781Z,8.80
2019-04-07T06:21:51.663Z,8.80
2019-04-07T06:24:35.024Z,8.90
2019-04-07T06:27:17.870Z,9.10
2019-04-07T06:30:00.922Z,9.20
2019-04-07T06:32:43.974Z,9.30
2019-04-07T06:35:26.148Z,9.40
2019-04-07T06:38:08.927Z,9.50
2019-04-07T06:40:56.503Z,9.70
2019-04-07T06:43:37.126Z,9.70
2019-04-07T06:49:50.994Z,9.80
2019-04-07T06:55:58.426Z,10.00
2019-04-07T06:58:43.799Z,10.00
2019-04-07T07:01:47.566Z,10.10
2019-04-07T07:04:49.660Z,10.10
2019-04-07T07:07:50.957Z,10.30
2019-04-07T07:10:53.151Z,10.40
2019-04-07T07:17:04.354Z,10.70
2019-04-07T07:20:06.751Z,10.70
2019-04-07T07:22:50.777Z,10.80
2019-04-07T07:25:33.338Z,10.70
2019-04-07T07:28:16.089Z,10.70
2019-04-07T07:30:57.935Z,10.80
2019-04-07T07:33:41.814Z,10.80
2019-04-07T07:36:23.990Z,10.80
2019-04-07T07:39:10.263Z,10.80
2019-04-07T07:41:51.886Z,10.80
2019-04-07T07:44:37.555Z,10.90
2019-04-07T07:47:20.895Z,11.00
2019-04-07T07:50:04.950Z,11.10
2019-04-07T07:52:49.282Z,11.20
2019-04-07T07:55:33.854Z,11.30
2019-04-07T07:58:12.705Z,11.50
2019-04-07T08:00:55.523Z,11.70
2019-04-07T08:03:37.612Z,11.80
2019-04-07T08:06:19.414Z,11.70
2019-04-07T08:09:11.896Z,11.70
2019-04-07T08:11:43.519Z,11.70
2019-04-07T08:14:32.604Z,11.70
2019-04-07T08:17:43.091Z,11.60
2019-04-07T08:20:52.367Z,11.60
2019-04-07T08:23:45.284Z,11.50
2019-04-07T08:26:56.288Z,11.70
2019-04-07T08:30:03.810Z,11.70
2019-04-07T08:33:13.136Z,11.80
2019-04-07T08:36:04.388Z,11.90
2019-04-07T08:39:21.466Z,11.90
2019-04-07T08:42:25.150Z,12.00
2019-04-07T08:45:33.837Z,12.20
2019-04-07T08:48:22.787Z,12.30
2019-04-07T08:51:13.625Z,12.40
2019-04-07T08:54:23.523Z,12.50
2019-04-07T08:57:33.548Z,12.60
2019-04-07T09:03:52.881Z,12.60
2019-04-07T09:06:37.415Z,12.70
2019-04-07T09:09:30.350Z,12.70
2019-04-07T09:12:02.401Z,12.70
2019-04-07T09:14:45.582Z,12.80
2019-04-07T09:17:47.733Z,13.00
2019-04-07T09:20:49.574Z,13.00
2019-04-07T09:26:51.077Z,13.20
2019-04-07T09:29:55.820Z,13.40
2019-04-07T09:32:57.712Z,13.70
2019-04-07T09:35:44.399Z,13.80
2019-04-07T09:38:30.859Z,13.90
2019-04-07T09:41:17.208Z,13.80
2019-04-07T09:44:03.146Z,14.10
2019-04-07T09:47:04.278Z,14.30
2019-04-07T09:50:06.682Z,14.30
2019-04-07T09:52:53.541Z,14.50
2019-04-07T09:58:53.448Z,14.60
2019-04-07T10:04:57.544Z,14.90
2019-04-07T10:07:42.828Z,14.70
2019-04-07T10:10:45.225Z,14.70
2019-04-07T10:13:47.534Z,14.70
2019-04-07T10:16:49.479Z,14.80
2019-04-07T10:19:32.934Z,15.00
2019-04-07T10:22:34.495Z,15.00
2019-04-07T10:25:36.157Z,15.00
2019-04-07T10:28:19.736Z,15.20
2019-04-07T10:31:21.017Z,15.10
2019-04-07T10:34:05.125Z,15.10
2019-04-07T10:36:51.729Z,15.00
2019-04-07T10:46:21.551Z,15.00
2019-04-07T10:49:22.702Z,15.30
2019-04-07T10:52:23.644Z,15.40
2019-04-07T10:55:11.493Z,15.30
2019-04-07T10:58:39.285Z,15.20
2019-04-07T11:01:49.147Z,15.40
2019-04-07T11:04:57.415Z,15.20
2019-04-07T11:07:59.126Z,14.80
2019-04-07T11:10:43.146Z,14.70
2019-04-07T11:16:54.916Z,14.80
2019-04-07T11:19:56.679Z,14.90
2019-04-07T11:22:58.030Z,15.20
2019-04-07T11:25:41.368Z,15.50
2019-04-07T11:28:28.966Z,15.80
2019-04-07T11:31:32.186Z,15.70
2019-04-07T11:37:30.847Z,15.80
2019-04-07T11:43:29.422Z,16.30
2019-04-07T11:46:12.874Z,16.50
2019-04-07T11:49:14.248Z,16.30
2019-04-07T11:51:58.198Z,16.30
2019-04-07T11:54:42.618Z,16.40
2019-04-07T11:57:27.106Z,16.60
2019-04-07T12:00:14.153Z,17.00
2019-04-07T12:03:26.970Z,17.40
2019-04-07T12:06:26.958Z,17.60
2019-04-07T12:09:29.250Z,17.80
2019-04-07T12:12:12.760Z,18.00
2019-04-07T12:14:52.488Z,18.30
2019-04-07T12:18:00.367Z,18.50
2019-04-07T12:21:08.780Z,18.60
2019-04-07T12:27:47.036Z,18.80
2019-04-07T12:30:50.278Z,18.80
2019-04-07T12:33:38.540Z,18.80
2019-04-07T12:39:53.382Z,18.80
2019-04-07T12:46:09.012Z,19.10
2019-04-07T12:48:53.232Z,19.60
2019-04-07T12:51:56.001Z,20.10
2019-04-07T12:58:09.832Z,20.20
2019-04-07T13:01:15.678Z,20.10
2019-04-07T13:03:54.769Z,20.20
2019-04-07T13:06:44.940Z,20.20
2019-04-07T13:10:05.319Z,20.30
2019-04-07T13:16:00.368Z,21.10
2019-04-07T13:18:44.532Z,21.40
2019-04-07T13:21:47.180Z,21.60
2019-04-07T13:24:49.428Z,21.90
2019-04-07T13:27:50.786Z,22.10
2019-04-07T13:30:37.399Z,22.30
2019-04-07T13:33:28.367Z,22.40
2019-04-07T13:36:28.311Z,22.60
2019-04-07T13:39:30.288Z,22.60
2019-04-07T13:42:14.247Z,22.90
2019-04-07T13:45:16.853Z,23.40
2019-04-07T13:48:01.446Z,23.70
2019-04-07T13:53:57.620Z,24.10
2019-04-07T13:59:53.211Z,23.50
2019-04-07T14:02:55.856Z,23.40
2019-04-07T14:05:57.913Z,23.00
2019-04-07T14:09:00.094Z,22.80
2019-04-07T14:12:07.544Z,22.80
2019-04-07T14:14:49.833Z,22.30
2019-04-07T14:17:52.303Z,21.80
2019-04-07T14:20:34.667Z,21.20
2019-04-07T14:23:43.069Z,20.50
2019-04-07T14:26:51.694Z,20.80
2019-04-07T14:30:01.491Z,21.70
2019-04-07T14:35:59.724Z,23.90
2019-04-07T14:38:44.009Z,24.70
2019-04-07T14:41:31.192Z,24.10
2019-04-07T14:47:48.227Z,24.00
2019-04-07T14:50:59.273Z,25.90
2019-04-07T14:54:01.087Z,25.50
2019-04-07T14:56:48.799Z,24.40
2019-04-07T14:59:52.090Z,23.50
2019-04-07T15:02:34.430Z,24.00
2019-04-07T15:05:23.242Z,26.70
2019-04-07T15:08:05.043Z,28.40
2019-04-07T15:10:51.620Z,29.20
2019-04-07T15:13:33.791Z,29.60
2019-04-07T15:16:15.296Z,29.50
2019-04-07T15:18:57.296Z,30.30
2019-04-07T15:21:37.393Z,31.60
2019-04-07T15:24:26.652Z,32.40
2019-04-07T15:27:35.228Z,33.10
2019-04-07T15:30:18.167Z,33.10
2019-04-07T15:33:01.620Z,33.50
2019-04-07T15:35:48.691Z,33.20
2019-04-07T15:38:15.363Z,33.70
2019-04-07T15:41:08.196Z,33.70
2019-04-07T15:44:15.723Z,32.90
2019-04-07T15:47:25.452Z,32.50
2019-04-07T15:50:35.476Z,32.70
2019-04-07T15:53:26.272Z,32.10
2019-04-07T15:56:18.830Z,30.00
2019-04-07T15:59:29.455Z,28.20
2019-04-07T16:02:40.878Z,27.30
2019-04-07T16:05:47.295Z,26.00
2019-04-07T16:08:59.424Z,24.40
2019-04-07T16:12:06.419Z,23.40
2019-04-07T16:15:16.427Z,22.60
2019-04-07T16:18:26.278Z,21.90
2019-04-07T16:21:35.352Z,21.20
2019-04-07T16:24:26.894Z,20.90
2019-04-07T16:27:38.575Z,20.60
2019-04-07T16:30:49.389Z,20.30
2019-04-07T16:33:49.005Z,20.10
2019-04-07T16:36:32.466Z,19.60
2019-04-07T16:39:14.350Z,19.40
2019-04-07T16:41:55.927Z,19.30
2019-04-07T16:44:42.474Z,19.10
2019-04-07T16:47:26.340Z,18.80
2019-04-07T16:50:07.628Z,18.50
2019-04-07T16:52:49.957Z,18.20
2019-04-07T16:55:32.642Z,17.90
2019-04-07T16:58:14.485Z,17.70
2019-04-07T17:00:56.618Z,17.60
2019-04-07T17:03:38.705Z,17.40
2019-04-07T17:06:20.620Z,17.20
2019-04-07T17:09:04.354Z,17.00
2019-04-07T17:11:46.089Z,16.80
2019-04-07T17:14:31.951Z,16.70
2019-04-07T17:17:16.439Z,16.60
2019-04-07T17:19:58.738Z,16.50
2019-04-07T17:22:39.412Z,16.40
2019-04-07T17:25:21.689Z,16.40
2019-04-07T17:28:04.838Z,16.30
2019-04-07T17:30:47.628Z,16.20
2019-04-07T17:33:29.571Z,16.10
2019-04-07T17:36:15.267Z,16.00
2019-04-07T17:38:56.350Z,15.80
2019-04-07T17:41:39.174Z,15.70
2019-04-07T17:47:35.768Z,15.50
2019-04-07T17:50:38.993Z,15.40
2019-04-07T17:53:23.403Z,15.30
2019-04-07T17:56:06.846Z,15.20
2019-04-07T17:59:10.317Z,15.10
2019-04-07T18:01:56.659Z,15.10
2019-04-07T18:04:43.657Z,15.00
2019-04-07T18:07:48.799Z,14.90
2019-04-07T18:10:50.733Z,14.40
2019-04-07T18:13:56.600Z,14.90
2019-04-07T18:16:37.959Z,14.90
2019-04-07T18:19:21.683Z,14.80
2019-04-07T18:22:06.123Z,14.80
2019-04-07T18:24:50.950Z,14.70
2019-04-07T18:27:38.306Z,14.70
2019-04-07T18:30:25.878Z,14.70
2019-04-07T18:33:13.125Z,14.60
2019-04-07T18:35:56.467Z,14.60
2019-04-07T18:38:45.058Z,14.60
2019-04-07T18:45:15.704Z,14.50
2019-04-07T18:48:17.090Z,14.60
2019-04-07T18:51:18.089Z,14.60
2019-04-07T18:54:04.131Z,14.60
2019-04-07T18:57:05.594Z,14.50
2019-04-07T18:59:55.576Z,14.50
2019-04-07T19:02:52.513Z,14.50
2019-04-07T19:05:54.277Z,14.50
2019-04-07T19:11:47.251Z,14.50
2019-04-07T19:14:55.962Z,14.40
2019-04-07T19:17:54.630Z,14.40
2019-04-07T19:20:55.665Z,14.40
2019-04-07T19:23:39.831Z,14.40
2019-04-07T19:26:23.534Z,14.30
2019-04-07T19:29:10.360Z,14.30
2019-04-07T19:32:13.474Z,14.30
2019-04-07T19:35:15.229Z,14.30
2019-04-07T19:41:24.611Z,14.30
2019-04-07T19:44:17.452Z,14.30
2019-04-07T19:47:44.532Z,14.30
2019-04-07T19:50:55.000Z,14.30
2019-04-07T19:54:22.192Z,14.20
2019-04-07T19:57:31.927Z,14.20
2019-04-07T20:04:12.660Z,14.00
2019-04-07T20:07:39.912Z,13.80
2019-04-07T20:10:25.389Z,13.80
2019-04-07T20:13:26.134Z,13.60
2019-04-07T20:16:12.953Z,13.60
2019-04-07T20:19:11.796Z,13.50
2019-04-07T20:21:58.368Z,13.50
2019-04-07T20:25:00.639Z,13.40
2019-04-07T20:27:47.452Z,13.30
2019-04-07T20:30:35.512Z,13.20
2019-04-07T20:33:21.696Z,13.10
2019-04-07T20:36:08.740Z,12.90
2019-04-07T20:39:12.940Z,12.90
2019-04-07T20:42:16.787Z,12.80
2019-04-07T20:45:06.543Z,12.80
2019-04-07T20:48:24.095Z,12.70
2019-04-07T20:51:25.392Z,12.60
2019-04-07T20:54:08.664Z,12.50
2019-04-07T20:56:52.431Z,11.70
2019-04-07T20:59:47.783Z,12.30
2019-04-07T21:02:23.219Z,12.30
2019-04-07T21:05:10.163Z,12.20
2019-04-07T21:08:11.227Z,12.20
2019-04-07T21:13:40.638Z,12.10
2019-04-07T21:16:30.003Z,12.00
2019-04-07T21:19:36.505Z,11.90
2019-04-07T21:25:23.757Z,11.90
2019-04-07T21:28:08.969Z,11.80
2019-04-07T21:31:16.039Z,11.80
2019-04-07T21:33:57.780Z,11.80
2019-04-07T21:36:59.348Z,11.80
2019-04-07T21:39:42.555Z,11.70
2019-04-07T21:42:27.403Z,11.60
2019-04-07T21:45:37.033Z,11.60
2019-04-07T21:48:14.415Z,11.70
2019-04-07T21:51:17.105Z,11.50
2019-04-07T21:54:19.459Z,11.50
2019-04-07T21:57:04.401Z,11.60
2019-04-07T21:59:52.191Z,11.60
2019-04-07T22:02:43.199Z,11.60
2019-04-07T22:05:49.006Z,11.50
2019-04-07T22:08:49.981Z,11.50
2019-04-07T22:11:32.620Z,11.50
2019-04-07T22:14:14.691Z,11.50
2019-04-07T22:16:56.929Z,11.50
2019-04-07T22:19:44.153Z,11.50
2019-04-07T22:22:24.079Z,11.40
2019-04-07T22:25:08.659Z,11.40
2019-04-07T22:27:54.491Z,11.30
2019-04-07T22:30:39.193Z,11.30
2019-04-07T22:33:22.909Z,11.30
2019-04-07T22:36:02.467Z,11.20
2019-04-07T22:38:44.382Z,11.10
2019-04-07T22:41:27.016Z,11.10
2019-04-07T22:44:09.241Z,11.10
2019-04-07T22:46:52.273Z,11.10
2019-04-07T22:49:34.414Z,11.10
2019-04-07T22:52:17.675Z,11.10
2019-04-07T22:55:03.626Z,11.10
2019-04-07T22:57:42.995Z,11.10
2019-04-07T23:00:26.801Z,11.10
2019-04-07T23:03:09.921Z,11.00
2019-04-07T23:05:53.145Z,11.00
2019-04-07T23:08:35.058Z,11.10
2019-04-07T23:11:17.357Z,11.10
2019-04-07T23:13:59.768Z,11.00
2019-04-07T23:16:42.278Z,11.00
2019-04-07T23:19:24.918Z,11.10
2019-04-07T23:22:06.517Z,11.00
2019-04-07T23:24:48.211Z,11.00
2019-04-07T23:27:31.805Z,11.10
2019-04-07T23:30:13.456Z,11.00
2019-04-07T23:32:55.711Z,11.00
2019-04-07T23:35:39.225Z,11.00
2019-04-07T23:38:21.932Z,10.90
2019-04-07T23:41:04.111Z,11.00
2019-04-07T23:43:45.983Z,10.90
2019-04-07T23:46:28.502Z,10.90
2019-04-07T23:49:10.372Z,10.90
2019-04-07T23:51:53.124Z,10.90
2019-04-07T23:54:35.231Z,10.80
2019-04-07T23:57:17.658Z,10.80
2019-04-07T23:59:59.809Z,10.80
